Time;durP1;ratioP1;P1;durP2;ratioP2;P2;SDS_P1;SDS_P2;PMS_P1;PMS_P2;Temp;Humidity;BMP_temperature;BMP_pressure;BME280_temperature;BME280_humidity;BME280_pressure;Samples;Min_cycle;Max_cycle;Signal;HPM_P1;HPM_P2
2023/11/22 00:00:07;;;;;;;4.05;1.98;;;;;;;;;;6191314;23;20095;-84
2023/11/22 00:02:35;;;;;;;6.22;2.10;;;;;;;;;;6191375;23;20009;-85
2023/11/22 00:05:03;;;;;;;4.07;2.10;;;;;;;;;;6191925;23;20008;-86
2023/11/22 00:07:29;;;;;;;3.85;1.67;;;;;;;;;;6218490;23;20009;-85
2023/11/22 00:09:55;;;;;;;2.53;1.40;;;;;;;;;;6192316;23;20016;-85
2023/11/22 00:12:22;;;;;;;13.18;2.20;;;;;;;;;;6192161;23;20059;-83
2023/11/22 00:14:49;;;;;;;4.88;2.42;;;;;;;;;;6192325;23;20016;-83
2023/11/22 00:17:17;;;;;;;3.70;1.27;;;;;;;;;;6218690;23;20005;-83
2023/11/22 00:19:44;;;;;;;5.72;2.00;;;;;;;;;;6218615;23;20066;-86
2023/11/22 00:22:14;;;;;;;9.68;3.95;;;;;;;;;;6191685;23;20302;-86
2023/11/22 00:24:40;;;;;;;19.90;6.63;;;;;;;;;;6192583;23;20016;-84
2023/11/22 00:27:07;;;;;;;7.05;2.67;;;;;;;;;;6191320;23;20024;-86
2023/11/22 00:29:36;;;;;;;15.10;4.68;;;;;;;;;;6191535;23;20013;-85
2023/11/22 00:32:05;;;;;;;7.00;2.67;;;;;;;;;;6191374;23;20030;-86
2023/11/22 00:34:31;;;;;;;5.72;2.10;;;;;;;;;;6218245;23;20009;-85
2023/11/22 00:36:57;;;;;;;6.32;2.45;;;;;;;;;;6218049;23;20004;-85
2023/11/22 00:39:23;;;;;;;4.55;1.95;;;;;;;;;;6191182;23;20004;-85
2023/11/22 00:41:49;;;;;;;5.00;3.00;;;;;;;;;;6190633;23;20091;-85
2023/11/22 00:44:15;;;;;;;9.23;2.58;;;;;;;;;;6191235;23;20092;-85
2023/11/22 00:46:42;;;;;;;5.70;2.92;;;;;;;;;;6190747;23;20051;-85
2023/11/22 00:49:10;;;;;;;9.45;2.10;;;;;;;;;;6190108;23;20020;-85
2023/11/22 00:51:37;;;;;;;6.68;3.13;;;;;;;;;;6189841;23;20016;-85
2023/11/22 00:54:06;;;;;;;6.28;2.05;;;;;;;;;;6189775;23;20019;-84
2023/11/22 00:56:32;;;;;;;5.25;2.53;;;;;;;;;;6216447;23;20174;-85
2023/11/22 00:58:59;;;;;;;3.40;1.17;;;;;;;;;;6188645;23;20020;-85
2023/11/22 01:01:26;;;;;;;4.97;2.30;;;;;;;;;;6189305;23;20320;-85
2023/11/22 01:03:52;;;;;;;5.03;1.90;;;;;;;;;;6188461;23;20016;-84
2023/11/22 01:06:18;;;;;;;6.45;2.50;;;;;;;;;;6189149;23;20008;-85
2023/11/22 01:08:44;;;;;;;3.65;1.25;;;;;;;;;;6188321;23;20336;-85
2023/11/22 01:11:10;;;;;;;4.85;2.80;;;;;;;;;;6189151;23;20083;-85
2023/11/22 01:13:40;;;;;;;7.82;2.55;;;;;;;;;;6215238;23;20074;-83
2023/11/22 01:16:07;;;;;;;3.63;1.67;;;;;;;;;;6188914;23;20005;-85
2023/11/22 01:18:35;;;;;;;6.45;3.08;;;;;;;;;;6215893;23;20012;-85
2023/11/22 01:21:03;;;;;;;6.32;1.48;;;;;;;;;;6189679;23;20023;-85
2023/11/22 01:23:29;;;;;;;9.77;2.78;;;;;;;;;;6216280;23;20019;-85
2023/11/22 01:25:55;;;;;;;7.43;2.28;;;;;;;;;;6190347;23;20001;-86
2023/11/22 01:28:21;;;;;;;7.68;2.63;;;;;;;;;;6190640;23;20013;-86
2023/11/22 01:30:48;;;;;;;5.47;2.72;;;;;;;;;;6191131;23;20452;-86
2023/11/22 01:33:15;;;;;;;5.13;2.83;;;;;;;;;;6190449;23;20016;-86
2023/11/22 01:35:41;;;;;;;2.78;1.63;;;;;;;;;;6190575;23;20455;-86
2023/11/22 01:38:07;;;;;;;2.10;1.58;;;;;;;;;;6190603;23;20015;-86
2023/11/22 01:40:43;;;;;;;6.45;1.23;;;;;;;;;;6190542;23;20043;-86
2023/11/22 01:43:09;;;;;;;1.17;0.95;;;;;;;;;;6216701;23;20013;-86
2023/11/22 01:45:35;;;;;;;7.07;2.85;;;;;;;;;;6189480;23;20012;-85
2023/11/22 01:48:02;;;;;;;5.70;3.10;;;;;;;;;;6189660;23;20013;-85
2023/11/22 01:50:28;;;;;;;4.07;1.83;;;;;;;;;;6215925;23;20075;-85
2023/11/22 01:52:54;;;;;;;7.68;1.52;;;;;;;;;;6189422;23;20027;-85
2023/11/22 01:55:20;;;;;;;3.40;1.85;;;;;;;;;;6189591;23;20004;-85
2023/11/22 01:57:46;;;;;;;1.88;1.33;;;;;;;;;;6216661;23;20016;-86
2023/11/22 02:00:14;;;;;;;4.78;1.60;;;;;;;;;;6189178;23;20131;-86
2023/11/22 02:02:42;;;;;;;3.90;2.05;;;;;;;;;;6190150;23;20012;-85
2023/11/22 02:05:08;;;;;;;4.45;1.92;;;;;;;;;;6189535;23;20092;-85
2023/11/22 02:07:34;;;;;;;5.43;1.95;;;;;;;;;;6189793;23;20142;-85
2023/11/22 02:10:00;;;;;;;5.50;1.73;;;;;;;;;;6189248;23;20043;-85
2023/11/22 02:12:26;;;;;;;2.72;1.63;;;;;;;;;;6189602;23;20016;-85
2023/11/22 02:14:52;;;;;;;5.25;2.08;;;;;;;;;;6188506;23;20126;-85
2023/11/22 02:17:18;;;;;;;15.13;3.25;;;;;;;;;;6189242;23;20060;-85
2023/11/22 02:19:44;;;;;;;5.72;2.45;;;;;;;;;;6189493;23;20059;-85
2023/11/22 02:22:10;;;;;;;5.65;2.75;;;;;;;;;;6189155;23;20016;-83
2023/11/22 02:24:36;;;;;;;5.60;2.38;;;;;;;;;;6188734;23;20035;-85
2023/11/22 02:27:06;;;;;;;5.97;2.28;;;;;;;;;;6189116;23;20013;-85
2023/11/22 02:29:32;;;;;;;5.90;1.73;;;;;;;;;;6188426;23;20016;-85
2023/11/22 02:31:58;;;;;;;4.07;1.75;;;;;;;;;;6189262;23;20293;-85
2023/11/22 02:34:24;;;;;;;3.78;1.25;;;;;;;;;;6188277;23;20056;-85
2023/11/22 02:36:50;;;;;;;3.08;1.67;;;;;;;;;;6214329;23;20001;-85
2023/11/22 02:39:16;;;;;;;6.18;2.47;;;;;;;;;;6214769;23;20001;-85
2023/11/22 02:41:42;;;;;;;6.78;1.63;;;;;;;;;;6214911;23;20060;-85
2023/11/22 02:44:08;;;;;;;3.95;1.10;;;;;;;;;;6188372;23;20808;-85
2023/11/22 02:46:34;;;;;;;3.63;2.00;;;;;;;;;;6189430;23;20043;-86
2023/11/22 02:49:00;;;;;;;3.50;2.03;;;;;;;;;;6189759;23;20017;-86
2023/11/22 02:51:26;;;;;;;2.40;1.05;;;;;;;;;;6189288;23;20004;-86
2023/11/22 02:53:54;;;;;;;5.07;1.75;;;;;;;;;;6189262;23;20048;-86
2023/11/22 02:56:21;;;;;;;8.02;1.48;;;;;;;;;;6188994;23;20015;-86
2023/11/22 02:58:47;;;;;;;4.70;1.98;;;;;;;;;;6189648;23;20009;-86
2023/11/22 03:01:13;;;;;;;2.80;1.38;;;;;;;;;;6189895;23;20050;-86
2023/11/22 03:03:39;;;;;;;10.27;1.30;;;;;;;;;;6190086;23;20316;-84
2023/11/22 03:06:06;;;;;;;1.95;1.35;;;;;;;;;;6189336;23;20005;-84
2023/11/22 03:08:32;;;;;;;1.80;1.02;;;;;;;;;;6189283;23;20012;-84
2023/11/22 03:10:58;;;;;;;2.47;1.40;;;;;;;;;;6189198;23;20015;-84
2023/11/22 03:13:24;;;;;;;2.53;1.35;;;;;;;;;;6189193;23;20088;-84
2023/11/22 03:15:51;;;;;;;8.02;1.65;;;;;;;;;;6189414;23;20032;-84
2023/11/22 03:18:17;;;;;;;6.22;2.20;;;;;;;;;;6189395;23;20008;-84
2023/11/22 03:20:45;;;;;;;2.70;0.98;;;;;;;;;;6189308;23;20070;-87
2023/11/22 03:23:11;;;;;;;1.58;1.27;;;;;;;;;;6189319;23;20088;-86
2023/11/22 03:25:37;;;;;;;1.88;0.90;;;;;;;;;;6188936;23;20016;-86
2023/11/22 03:28:06;;;;;;;3.45;1.30;;;;;;;;;;6214964;23;20019;-86
2023/11/22 03:30:34;;;;;;;6.97;1.55;;;;;;;;;;6188115;23;20016;-86
2023/11/22 03:33:00;;;;;;;2.50;1.33;;;;;;;;;;6188205;23;20324;-86
2023/11/22 03:35:26;;;;;;;3.72;1.40;;;;;;;;;;6188899;23;20012;-86
2023/11/22 03:37:52;;;;;;;3.05;0.80;;;;;;;;;;6188680;23;20017;-85
2023/11/22 03:40:18;;;;;;;5.70;1.58;;;;;;;;;;6188458;23;20000;-85
2023/11/22 03:42:44;;;;;;;5.22;0.93;;;;;;;;;;6188246;23;20012;-86
2023/11/22 03:45:12;;;;;;;3.03;1.98;;;;;;;;;;6188641;23;20074;-85
2023/11/22 03:47:38;;;;;;;3.67;0.93;;;;;;;;;;6188555;23;20012;-85
2023/11/22 03:50:05;;;;;;;2.95;1.27;;;;;;;;;;6189989;23;20043;-85
2023/11/22 03:52:31;;;;;;;7.95;1.33;;;;;;;;;;6189303;23;20095;-86
2023/11/22 03:54:58;;;;;;;5.45;0.88;;;;;;;;;;6189971;23;20004;-85
2023/11/22 03:57:24;;;;;;;3.35;0.98;;;;;;;;;;6189836;23;20009;-83
2023/11/22 03:59:50;;;;;;;3.78;1.98;;;;;;;;;;6189448;23;20088;-83
2023/11/22 04:02:16;;;;;;;2.53;1.52;;;;;;;;;;6188445;23;20012;-83
2023/11/22 04:04:42;;;;;;;4.60;1.77;;;;;;;;;;6188022;23;20019;-83
2023/11/22 04:07:08;;;;;;;4.80;1.65;;;;;;;;;;6214263;23;20043;-83
2023/11/22 04:09:34;;;;;;;3.47;1.45;;;;;;;;;;6188134;23;20420;-84
2023/11/22 04:12:00;;;;;;;6.15;2.25;;;;;;;;;;6214104;23;20008;-83
2023/11/22 04:14:27;;;;;;;4.50;2.63;;;;;;;;;;6214915;23;20413;-83
2023/11/22 04:16:53;;;;;;;3.33;1.45;;;;;;;;;;6188773;23;20087;-83
2023/11/22 04:19:19;;;;;;;3.88;1.83;;;;;;;;;;6188918;23;20032;-85
2023/11/22 04:21:45;;;;;;;9.40;1.23;;;;;;;;;;6186940;23;20117;-86
2023/11/22 04:24:12;;;;;;;3.88;1.52;;;;;;;;;;6213442;23;20032;-86
2023/11/22 04:26:38;;;;;;;5.40;2.20;;;;;;;;;;6214247;23;20135;-85
2023/11/22 04:29:04;;;;;;;6.45;1.13;;;;;;;;;;6187729;23;20429;-85
2023/11/22 04:31:30;;;;;;;9.20;2.28;;;;;;;;;;6187496;23;20443;-85
2023/11/22 04:33:57;;;;;;;3.28;1.60;;;;;;;;;;6214106;23;20027;-85
2023/11/22 04:36:23;;;;;;;4.10;1.67;;;;;;;;;;6216643;23;19996;-85
2023/11/22 04:38:49;;;;;;;6.55;2.28;;;;;;;;;;6189488;23;20072;-83
2023/11/22 04:41:16;;;;;;;12.55;2.97;;;;;;;;;;6189867;23;20039;-83
2023/11/22 04:43:42;;;;;;;4.82;1.98;;;;;;;;;;6189587;23;20012;-83
2023/11/22 04:46:08;;;;;;;3.95;1.25;;;;;;;;;;6188924;23;20012;-84
2023/11/22 04:48:34;;;;;;;6.20;2.55;;;;;;;;;;6216941;23;20008;-85
2023/11/22 04:51:00;;;;;;;3.15;1.45;;;;;;;;;;6189093;23;20425;-85
2023/11/22 04:53:26;;;;;;;3.00;1.38;;;;;;;;;;6188916;23;20093;-85
2023/11/22 04:55:53;;;;;;;7.38;2.33;;;;;;;;;;6189315;23;20316;-85
2023/11/22 04:58:19;;;;;;;5.80;1.60;;;;;;;;;;6215756;23;20004;-85
2023/11/22 05:00:45;;;;;;;2.50;1.75;;;;;;;;;;6188599;23;20008;-86
2023/11/22 05:03:11;;;;;;;1.45;0.95;;;;;;;;;;6189456;23;20013;-85
2023/11/22 05:05:37;;;;;;;4.43;2.55;;;;;;;;;;6188500;23;20008;-85
2023/11/22 05:08:03;;;;;;;3.92;1.75;;;;;;;;;;6188740;23;20052;-85
2023/11/22 05:10:29;;;;;;;6.93;2.15;;;;;;;;;;6187934;23;20421;-85
2023/11/22 05:12:59;;;;;;;5.63;2.25;;;;;;;;;;6215809;23;20015;-85
2023/11/22 05:15:25;;;;;;;9.95;2.17;;;;;;;;;;6215032;23;20005;-83
2023/11/22 05:17:51;;;;;;;5.50;3.20;;;;;;;;;;6214663;23;20008;-85
2023/11/22 05:20:17;;;;;;;4.28;1.67;;;;;;;;;;6187470;23;20712;-85
2023/11/22 05:22:43;;;;;;;2.70;1.15;;;;;;;;;;6215322;23;20012;-85
2023/11/22 05:25:09;;;;;;;6.70;3.08;;;;;;;;;;6188851;23;20016;-83
2023/11/22 05:27:35;;;;;;;2.55;1.40;;;;;;;;;;6215683;23;20012;-84
2023/11/22 05:30:01;;;;;;;3.17;1.60;;;;;;;;;;6189123;23;20446;-84
2023/11/22 05:32:28;;;;;;;5.13;1.10;;;;;;;;;;6215752;23;20432;-83
2023/11/22 05:34:54;;;;;;;1.42;1.25;;;;;;;;;;6189620;23;20015;-84
2023/11/22 05:37:20;;;;;;;8.40;2.00;;;;;;;;;;6188920;23;20095;-83
2023/11/22 05:39:46;;;;;;;5.35;2.10;;;;;;;;;;6188665;23;20083;-83
2023/11/22 05:42:13;;;;;;;4.30;1.58;;;;;;;;;;6188078;23;20384;-83
2023/11/22 05:44:39;;;;;;;3.58;1.73;;;;;;;;;;6214874;23;20012;-83
2023/11/22 05:47:05;;;;;;;7.50;3.38;;;;;;;;;;6187784;23;20071;-86
2023/11/22 05:49:31;;;;;;;2.92;1.45;;;;;;;;;;6187908;23;20008;-85
2023/11/22 05:51:57;;;;;;;3.53;2.33;;;;;;;;;;6187190;23;20424;-85
2023/11/22 05:54:23;;;;;;;5.50;2.80;;;;;;;;;;6187575;23;20004;-85
2023/11/22 05:56:49;;;;;;;9.27;3.03;;;;;;;;;;6186899;23;20028;-86
2023/11/22 05:59:15;;;;;;;4.13;1.33;;;;;;;;;;6188973;23;20001;-85
2023/11/22 06:01:41;;;;;;;6.43;2.60;;;;;;;;;;6188237;23;20053;-85
2023/11/22 06:04:09;;;;;;;10.95;2.08;;;;;;;;;;6188603;23;20017;-85
2023/11/22 06:06:35;;;;;;;2.65;0.85;;;;;;;;;;6187945;23;20453;-85
2023/11/22 06:09:01;;;;;;;2.75;1.60;;;;;;;;;;6187965;23;20440;-85
2023/11/22 06:11:27;;;;;;;3.30;1.17;;;;;;;;;;6188031;23;20031;-85
2023/11/22 06:13:53;;;;;;;5.55;1.75;;;;;;;;;;6214613;23;20060;-85
2023/11/22 06:16:19;;;;;;;6.15;2.22;;;;;;;;;;6187918;23;20015;-84
2023/11/22 06:18:46;;;;;;;9.73;1.45;;;;;;;;;;6187520;23;20012;-84
2023/11/22 06:21:13;;;;;;;1.98;0.63;;;;;;;;;;6213638;23;20012;-85
2023/11/22 06:23:39;;;;;;;3.20;1.83;;;;;;;;;;6216250;23;20011;-85
2023/11/22 06:26:06;;;;;;;7.20;1.58;;;;;;;;;;6189184;23;20040;-84
2023/11/22 06:28:32;;;;;;;3.17;1.80;;;;;;;;;;6187334;23;20009;-86
2023/11/22 06:30:58;;;;;;;6.20;1.40;;;;;;;;;;6185964;23;20004;-86
2023/11/22 06:33:24;;;;;;;2.80;0.85;;;;;;;;;;6215184;23;20038;-85
2023/11/22 06:35:50;;;;;;;11.25;1.10;;;;;;;;;;6188811;23;20012;-85
2023/11/22 06:38:16;;;;;;;4.65;1.95;;;;;;;;;;6213149;23;20016;-84
2023/11/22 06:40:42;;;;;;;2.33;1.65;;;;;;;;;;6215276;23;20009;-83
2023/11/22 06:43:08;;;;;;;3.47;0.88;;;;;;;;;;6215003;23;20436;-83
2023/11/22 06:45:34;;;;;;;9.30;2.65;;;;;;;;;;6215605;23;20051;-83
2023/11/22 06:48:00;;;;;;;5.07;2.03;;;;;;;;;;6215811;23;20649;-83
2023/11/22 06:50:26;;;;;;;3.70;1.55;;;;;;;;;;6189230;23;20079;-83
2023/11/22 06:52:53;;;;;;;2.80;1.17;;;;;;;;;;6216217;23;20043;-83
2023/11/22 06:55:19;;;;;;;5.35;3.00;;;;;;;;;;6189076;23;20009;-83
2023/11/22 06:57:45;;;;;;;5.95;2.83;;;;;;;;;;6188453;23;20015;-83
2023/11/22 07:00:12;;;;;;;3.47;2.08;;;;;;;;;;6215245;23;20312;-83
2023/11/22 07:02:38;;;;;;;7.50;1.60;;;;;;;;;;6188881;23;20325;-83
2023/11/22 07:05:08;;;;;;;14.13;3.97;;;;;;;;;;6215433;23;20016;-84
2023/11/22 07:07:34;;;;;;;5.88;2.17;;;;;;;;;;6189744;23;20019;-84
2023/11/22 07:10:00;;;;;;;8.93;3.65;;;;;;;;;;6190325;23;20070;-84
2023/11/22 07:12:26;;;;;;;5.50;2.08;;;;;;;;;;6216634;23;20054;-84
2023/11/22 07:14:52;;;;;;;3.63;1.25;;;;;;;;;;6216511;23;20083;-84
2023/11/22 07:17:18;;;;;;;5.32;2.33;;;;;;;;;;6216806;23;20009;-82
2023/11/22 07:19:48;;;;;;;3.22;1.98;;;;;;;;;;6216339;23;20007;-84
2023/11/22 07:22:19;;;;;;;4.35;1.55;;;;;;;;;;6189641;23;20004;-84
2023/11/22 07:24:45;;;;;;;2.40;1.58;;;;;;;;;;6189304;23;20457;-84
2023/11/22 07:27:13;;;;;;;5.20;1.75;;;;;;;;;;6215233;23;20047;-84
2023/11/22 07:29:42;;;;;;;4.35;1.88;;;;;;;;;;6214897;23;20005;-83
2023/11/22 07:32:08;;;;;;;1.50;0.88;;;;;;;;;;6215209;23;20012;-83
2023/11/22 07:34:39;;;;;;;2.42;0.98;;;;;;;;;;6215302;23;20371;-84
2023/11/22 07:37:07;;;;;;;3.97;1.75;;;;;;;;;;6189121;23;20019;-83
2023/11/22 07:39:35;;;;;;;4.07;2.67;;;;;;;;;;6215455;23;20424;-83
2023/11/22 07:42:01;;;;;;;4.57;2.33;;;;;;;;;;6215238;23;20309;-83
2023/11/22 07:44:27;;;;;;;4.70;2.20;;;;;;;;;;6214786;23;20004;-83
2023/11/22 07:46:53;;;;;;;5.10;1.50;;;;;;;;;;6214733;23;20009;-83
2023/11/22 07:49:23;;;;;;;2.38;1.52;;;;;;;;;;6214332;23;20009;-83
2023/11/22 07:51:51;;;;;;;3.35;1.05;;;;;;;;;;6187611;23;20004;-84
2023/11/22 07:54:18;;;;;;;7.30;2.50;;;;;;;;;;6187343;23;20484;-83
2023/11/22 07:56:44;;;;;;;5.40;1.85;;;;;;;;;;6213901;23;20305;-82
2023/11/22 07:59:13;;;;;;;3.60;1.65;;;;;;;;;;6186741;23;20018;-83
2023/11/22 08:01:39;;;;;;;4.88;2.55;;;;;;;;;;6186633;23;20332;-83
2023/11/22 08:04:06;;;;;;;5.82;3.13;;;;;;;;;;6212710;23;20005;-83
2023/11/22 08:06:33;;;;;;;7.07;1.90;;;;;;;;;;6214533;23;20016;-82
2023/11/22 08:09:03;;;;;;;6.95;2.00;;;;;;;;;;6188690;23;20096;-83
2023/11/22 08:11:29;;;;;;;9.05;2.65;;;;;;;;;;6215254;23;20012;-83
2023/11/22 08:13:57;;;;;;;5.28;2.10;;;;;;;;;;6189856;23;20463;-83
2023/11/22 08:16:23;;;;;;;6.90;2.40;;;;;;;;;;6189957;23;20054;-84
2023/11/22 08:18:50;;;;;;;7.55;2.33;;;;;;;;;;6216696;23;20099;-82
2023/11/22 08:21:17;;;;;;;9.88;2.95;;;;;;;;;;6216578;23;20025;-84
2023/11/22 08:23:43;;;;;;;4.05;2.58;;;;;;;;;;6217315;23;20012;-82
2023/11/22 08:26:11;;;;;;;10.55;5.15;;;;;;;;;;6216098;23;20484;-82
2023/11/22 08:28:37;;;;;;;7.90;4.32;;;;;;;;;;6217500;23;20405;-84
2023/11/22 08:31:09;;;;;;;4.07;2.70;;;;;;;;;;6217349;23;20321;-84
2023/11/22 08:33:39;;;;;;;6.57;3.35;;;;;;;;;;6190133;23;20020;-84
2023/11/22 08:36:06;;;;;;;12.00;4.93;;;;;;;;;;6191312;23;20020;-83
2023/11/22 08:38:35;;;;;;;9.25;5.38;;;;;;;;;;6217383;23;20005;-83
2023/11/22 08:41:05;;;;;;;11.27;7.43;;;;;;;;;;6216154;23;20043;-84
2023/11/22 08:43:31;;;;;;;12.23;6.03;;;;;;;;;;6216901;23;20028;-83
2023/11/22 08:45:58;;;;;;;9.88;5.93;;;;;;;;;;6216246;23;20015;-84
2023/11/22 08:48:24;;;;;;;16.52;6.18;;;;;;;;;;6218400;23;20016;-83
2023/11/22 08:50:50;;;;;;;14.10;8.57;;;;;;;;;;6217137;23;20051;-84
2023/11/22 08:53:18;;;;;;;8.43;4.65;;;;;;;;;;6190196;23;20008;-84
2023/11/22 08:55:44;;;;;;;7.50;3.88;;;;;;;;;;6217031;23;20412;-84
2023/11/22 08:58:11;;;;;;;8.05;3.88;;;;;;;;;;6188820;23;20302;-84
2023/11/22 09:00:37;;;;;;;19.33;4.45;;;;;;;;;;6215991;23;20016;-85
2023/11/22 09:03:03;;;;;;;7.88;3.53;;;;;;;;;;6188705;23;20139;-84
2023/11/22 09:05:29;;;;;;;12.57;4.97;;;;;;;;;;6215295;23;20008;-84
2023/11/22 09:07:55;;;;;;;12.60;4.70;;;;;;;;;;6189699;23;20036;-85
2023/11/22 09:10:21;;;;;;;5.63;2.58;;;;;;;;;;6189750;23;20009;-85
2023/11/22 09:12:47;;;;;;;3.83;2.35;;;;;;;;;;6216475;23;20032;-85
2023/11/22 09:15:18;;;;;;;1.70;1.27;;;;;;;;;;6215598;23;20568;-85
2023/11/22 09:17:46;;;;;;;4.53;2.38;;;;;;;;;;6189923;23;20016;-85
2023/11/22 09:20:12;;;;;;;1.52;0.80;;;;;;;;;;6214747;23;20008;-84
2023/11/22 09:22:52;;;;;;;2.63;1.40;;;;;;;;;;6188830;23;20009;-84
2023/11/22 09:25:20;;;;;;;6.53;2.38;;;;;;;;;;6189163;23;20008;-84
2023/11/22 09:27:47;;;;;;;6.85;1.90;;;;;;;;;;6189185;23;20150;-84
2023/11/22 09:30:19;;;;;;;3.97;1.40;;;;;;;;;;6189510;23;20038;-85
2023/11/22 09:32:46;;;;;;;;;;;;;;;;;;6216461;23;20104;-85
2023/11/22 09:35:13;;;;;;;2.05;0.73;;;;;;;;;;6217467;23;19908;-85
2023/11/22 09:37:41;;;;;;;1.13;0.43;;;;;;;;;;6190810;23;20019;-84
2023/11/22 09:40:09;;;;;;;2.33;1.10;;;;;;;;;;6216897;23;20004;-85
2023/11/22 09:42:35;;;;;;;0.73;0.45;;;;;;;;;;6215944;23;20009;-85
2023/11/22 09:45:01;;;;;;;0.20;0.20;;;;;;;;;;6189283;23;20443;-84
2023/11/22 09:47:29;;;;;;;0.25;0.25;;;;;;;;;;6189208;23;20017;-84
2023/11/22 09:49:57;;;;;;;0.20;0.10;;;;;;;;;;6189044;23;20012;-85
2023/11/22 09:52:24;;;;;;;1.20;0.40;;;;;;;;;;6215690;23;20631;-85
2023/11/22 09:54:51;;;;;;;8.85;2.03;;;;;;;;;;6188716;23;20051;-85
2023/11/22 09:57:18;;;;;;;1.23;0.50;;;;;;;;;;6189384;23;20040;-85
2023/11/22 09:59:45;;;;;;;0.35;0.30;;;;;;;;;;6189490;23;20005;-85
2023/11/22 10:02:11;;;;;;;1.85;0.93;;;;;;;;;;6216083;23;20012;-85
2023/11/22 10:04:38;;;;;;;4.88;1.30;;;;;;;;;;6189737;23;20012;-85
2023/11/22 10:07:09;;;;;;;0.90;0.35;;;;;;;;;;6215263;23;20004;-85
2023/11/22 10:09:37;;;;;;;0.28;0.10;;;;;;;;;;6189822;23;20018;-85
2023/11/22 10:12:03;;;;;;;2.40;1.13;;;;;;;;;;6188663;23;20008;-85
2023/11/22 10:14:30;;;;;;;1.95;0.90;;;;;;;;;;6215565;23;20004;-85
2023/11/22 10:17:00;;;;;;;1.17;0.90;;;;;;;;;;6189245;23;20004;-85
2023/11/22 10:19:26;;;;;;;1.90;1.00;;;;;;;;;;6189259;23;20004;-85
2023/11/22 10:22:22;;;;;;;0.95;0.57;;;;;;;;;;6188817;23;20012;-85
2023/11/22 10:24:48;;;;;;;1.73;0.68;;;;;;;;;;6171192;23;20483;-85
2023/11/22 10:27:16;;;;;;;2.22;0.75;;;;;;;;;;6189504;23;20024;-85
2023/11/22 10:29:44;;;;;;;1.60;0.82;;;;;;;;;;6215629;23;20005;-85
2023/11/22 10:32:10;;;;;;;2.72;0.88;;;;;;;;;;6214969;23;20012;-85
2023/11/22 10:34:36;;;;;;;2.38;0.88;;;;;;;;;;6189334;23;20012;-86
2023/11/22 10:37:04;;;;;;;1.73;0.75;;;;;;;;;;6189975;23;20032;-86
2023/11/22 10:39:30;;;;;;;1.15;0.52;;;;;;;;;;6215659;23;20020;-86
2023/11/22 10:41:57;;;;;;;0.93;0.68;;;;;;;;;;6188813;23;20006;-85
2023/11/22 10:44:23;;;;;;;2.35;0.95;;;;;;;;;;6215934;23;20044;-86
2023/11/22 10:46:51;;;;;;;1.98;1.25;;;;;;;;;;6189405;23;20008;-86
2023/11/22 10:49:17;;;;;;;3.20;0.95;;;;;;;;;;6188719;23;20015;-86
2023/11/22 10:51:45;;;;;;;2.20;0.68;;;;;;;;;;6189001;23;20016;-85
2023/11/22 10:54:11;;;;;;;8.35;1.75;;;;;;;;;;6187490;23;20016;-85
2023/11/22 10:56:39;;;;;;;1.55;0.98;;;;;;;;;;6188699;23;20009;-85
2023/11/22 10:59:08;;;;;;;2.42;0.60;;;;;;;;;;6187598;23;20024;-85
2023/11/22 11:01:34;;;;;;;0.75;0.32;;;;;;;;;;6188081;23;20075;-85
2023/11/22 11:04:00;;;;;;;1.27;0.50;;;;;;;;;;6187972;23;20059;-85
2023/11/22 11:06:31;;;;;;;0.43;0.28;;;;;;;;;;6187564;23;20436;-85
2023/11/22 11:09:00;;;;;;;2.50;0.60;;;;;;;;;;6187922;23;20328;-86
2023/11/22 11:11:26;;;;;;;0.65;0.50;;;;;;;;;;6214897;23;20637;-85
2023/11/22 11:13:52;;;;;;;1.08;0.50;;;;;;;;;;6187957;23;20020;-85
2023/11/22 11:16:19;;;;;;;0.98;0.57;;;;;;;;;;6188386;23;20020;-85
2023/11/22 11:18:45;;;;;;;1.05;0.35;;;;;;;;;;6188734;23;20005;-86
2023/11/22 11:21:12;;;;;;;2.03;0.40;;;;;;;;;;6216536;23;20001;-86
2023/11/22 11:23:40;;;;;;;1.15;0.25;;;;;;;;;;6188362;23;20427;-84
2023/11/22 11:26:21;;;;;;;1.00;0.70;;;;;;;;;;6188239;23;20013;-85
2023/11/22 11:28:48;;;;;;;2.65;1.30;;;;;;;;;;6215105;23;20088;-85
2023/11/22 11:31:14;;;;;;;2.10;0.30;;;;;;;;;;6214186;23;20001;-86
2023/11/22 11:33:53;;;;;;;2.58;1.42;;;;;;;;;;6184466;23;20062;-85
2023/11/22 11:36:25;;;;;;;2.78;0.88;;;;;;;;;;6212084;23;20039;-84
2023/11/22 11:38:57;;;;;;;1.77;0.95;;;;;;;;;;6184109;23;20043;-84
2023/11/22 11:41:27;;;;;;;1.48;0.77;;;;;;;;;;6184598;23;20432;-85
2023/11/22 11:43:54;;;;;;;2.80;0.85;;;;;;;;;;6186015;23;20504;-85
2023/11/22 11:46:22;;;;;;;1.75;0.60;;;;;;;;;;6188327;23;20004;-84
2023/11/22 11:48:50;;;;;;;2.30;0.85;;;;;;;;;;6214232;23;20542;-85
2023/11/22 11:51:17;;;;;;;4.35;1.77;;;;;;;;;;6214640;23;20055;-86
2023/11/22 11:53:43;;;;;;;1.42;0.95;;;;;;;;;;6187497;23;20055;-85
2023/11/22 11:56:10;;;;;;;1.67;1.15;;;;;;;;;;6214636;23;20075;-85
2023/11/22 11:58:37;;;;;;;5.47;0.80;;;;;;;;;;6213630;23;20008;-85
2023/11/22 12:01:07;;;;;;;2.38;1.15;;;;;;;;;;6214501;23;20009;-85
2023/11/22 12:03:33;;;;;;;0.40;0.30;;;;;;;;;;6187654;23;20095;-85
2023/11/22 12:05:59;;;;;;;2.25;0.38;;;;;;;;;;6186886;23;20595;-85
2023/11/22 12:08:29;;;;;;;0.20;0.20;;;;;;;;;;6213044;23;20571;-85
2023/11/22 12:10:58;;;;;;;2.55;0.57;;;;;;;;;;6186391;23;20009;-86
2023/11/22 12:13:25;;;;;;;0.15;0.13;;;;;;;;;;6186228;23;20066;-84
2023/11/22 12:15:55;;;;;;;0.70;0.50;;;;;;;;;;6185335;23;20016;-86
2023/11/22 12:18:22;;;;;;;0.25;0.08;;;;;;;;;;6184112;23;20024;-86
2023/11/22 12:20:55;;;;;;;0.28;0.15;;;;;;;;;;6186945;23;20009;-86
2023/11/22 12:23:21;;;;;;;0.55;0.13;;;;;;;;;;6185544;23;20035;-85
2023/11/22 12:25:49;;;;;;;1.08;0.10;;;;;;;;;;6214327;23;20393;-86
2023/11/22 12:28:18;;;;;;;0.17;0.10;;;;;;;;;;6186086;23;20051;-85
2023/11/22 12:30:45;;;;;;;1.90;0.10;;;;;;;;;;6190436;23;20020;-86
2023/11/22 12:33:36;;;;;;;0.93;0.45;;;;;;;;;;6185881;23;20017;-86
2023/11/22 12:36:01;;;;;;;0.40;0.20;;;;;;;;;;6173398;23;20029;-84
2023/11/22 12:38:29;;;;;;;0.45;0.20;;;;;;;;;;6157568;23;20052;-86
2023/11/22 12:40:57;;;;;;;0.10;0.10;;;;;;;;;;6158567;23;20016;-83
2023/11/22 12:43:26;;;;;;;0.73;0.13;;;;;;;;;;6183578;23;20051;-84
2023/11/22 12:46:10;;;;;;;1.33;0.38;;;;;;;;;;6158313;23;20092;-84
2023/11/22 12:48:36;;;;;;;0.13;0.10;;;;;;;;;;6159259;23;20452;-84
2023/11/22 12:51:02;;;;;;;0.30;0.17;;;;;;;;;;6184137;23;20029;-83
2023/11/22 12:53:28;;;;;;;0.30;0.20;;;;;;;;;;6182087;23;20425;-83
2023/11/22 12:55:55;;;;;;;1.42;0.47;;;;;;;;;;6182929;23;20009;-83
2023/11/22 12:58:22;;;;;;;0.65;0.17;;;;;;;;;;6183315;23;20016;-83
2023/11/22 13:00:49;;;;;;;1.15;0.28;;;;;;;;;;6183702;23;20080;-83
2023/11/22 13:03:15;;;;;;;1.08;0.60;;;;;;;;;;6184468;23;20033;-84
2023/11/22 13:05:45;;;;;;;1.95;0.68;;;;;;;;;;6183382;23;20009;-83
2023/11/22 13:08:13;;;;;;;0.57;0.10;;;;;;;;;;6184215;23;20015;-83
2023/11/22 13:10:39;;;;;;;0.73;0.10;;;;;;;;;;6182798;23;20013;-84
2023/11/22 13:13:08;;;;;;;0.68;0.20;;;;;;;;;;6183285;23;20020;-83
2023/11/22 13:15:34;;;;;;;0.82;0.43;;;;;;;;;;6182765;23;20302;-83
2023/11/22 13:18:01;;;;;;;1.10;0.38;;;;;;;;;;6183601;23;20005;-83
2023/11/22 13:20:27;;;;;;;0.73;0.30;;;;;;;;;;6182137;23;20008;-82
2023/11/22 13:22:53;;;;;;;1.08;0.30;;;;;;;;;;6183010;23;20009;-83
2023/11/22 13:25:20;;;;;;;0.20;0.10;;;;;;;;;;6182631;23;20033;-83
2023/11/22 13:27:49;;;;;;;0.17;0.10;;;;;;;;;;6183015;23;20020;-82
2023/11/22 13:30:15;;;;;;;0.50;0.20;;;;;;;;;;6182125;23;20009;-82
2023/11/22 13:32:42;;;;;;;2.70;0.32;;;;;;;;;;6182967;23;20124;-83
2023/11/22 13:35:14;;;;;;;0.10;0.10;;;;;;;;;;6182421;23;20008;-83
2023/11/22 13:37:42;;;;;;;0.35;0.13;;;;;;;;;;6156329;23;20017;-82
2023/11/22 13:40:14;;;;;;;0.82;0.43;;;;;;;;;;6182649;23;20013;-81
2023/11/22 13:42:40;;;;;;;0.50;0.15;;;;;;;;;;6181585;23;20009;-83
2023/11/22 13:45:06;;;;;;;1.02;0.63;;;;;;;;;;6180900;23;20009;-83
2023/11/22 13:47:32;;;;;;;1.85;0.30;;;;;;;;;;6180292;23;20340;-83
2023/11/22 13:49:59;;;;;;;0.30;0.22;;;;;;;;;;6182741;23;20083;-83
2023/11/22 13:52:25;;;;;;;0.40;0.30;;;;;;;;;;6183764;23;20012;-83
2023/11/22 13:54:56;;;;;;;0.75;0.10;;;;;;;;;;6185201;23;20012;-83
2023/11/22 13:57:22;;;;;;;0.28;0.20;;;;;;;;;;6186232;23;20001;-83
2023/11/22 13:59:48;;;;;;;0.00;0.00;;;;;;;;;;6159394;23;20401;-83
2023/11/22 14:02:16;;;;;;;0.45;0.28;;;;;;;;;;6185380;23;20099;-83
2023/11/22 14:04:42;;;;;;;1.92;0.40;;;;;;;;;;6184093;23;20012;-83
2023/11/22 14:07:08;;;;;;;0.88;0.50;;;;;;;;;;6183396;23;20670;-82
2023/11/22 14:09:36;;;;;;;0.47;0.32;;;;;;;;;;6183608;23;20009;-82
2023/11/22 14:12:02;;;;;;;2.28;0.43;;;;;;;;;;6184082;23;20041;-82
2023/11/22 14:14:28;;;;;;;1.13;0.30;;;;;;;;;;6183528;23;20012;-81
2023/11/22 14:16:54;;;;;;;1.42;0.20;;;;;;;;;;6157836;23;20013;-82
2023/11/22 14:19:20;;;;;;;0.20;0.00;;;;;;;;;;6183893;23;20001;-82
2023/11/22 14:21:47;;;;;;;0.10;0.10;;;;;;;;;;6182847;23;20005;-83
2023/11/22 14:24:13;;;;;;;0.20;0.20;;;;;;;;;;6183068;23;20013;-82
2023/11/22 14:26:39;;;;;;;0.30;0.10;;;;;;;;;;6183795;23;20009;-82
2023/11/22 14:29:05;;;;;;;0.63;0.52;;;;;;;;;;6183445;23;20024;-83
2023/11/22 14:31:32;;;;;;;1.45;0.50;;;;;;;;;;6183290;23;20052;-83
2023/11/22 14:33:58;;;;;;;0.40;0.32;;;;;;;;;;6183893;23;20325;-82
2023/11/22 14:36:26;;;;;;;0.00;0.00;;;;;;;;;;6185589;23;20017;-83
2023/11/22 14:38:56;;;;;;;1.13;0.32;;;;;;;;;;6185886;23;20016;-83
2023/11/22 14:41:22;;;;;;;0.20;0.10;;;;;;;;;;6186550;23;20005;-82